sensor_id;sensor_type;location;lat;lon;timestamp;pressure;altitude;pressure_sealevel;temperature;humidity
70343;BME280;57767;42.068;24.752;2022-09-12T00:00:28;98495.63;;;19.52;65.45
70343;BME280;57767;42.068;24.752;2022-09-12T00:01:35;98496.41;;;19.52;65.40
70343;BME280;57767;42.068;24.752;2022-09-12T00:02:37;98487.59;;;19.47;65.26
70343;BME280;57767;42.068;24.752;2022-09-12T00:03:39;98510.06;;;19.51;65.34
70343;BME280;57767;42.068;24.752;2022-09-12T00:04:41;98491.63;;;19.49;65.65
70343;BME280;57767;42.068;24.752;2022-09-12T00:05:45;98495.09;;;19.50;65.63
70343;BME280;57767;42.068;24.752;2022-09-12T00:06:47;98494.81;;;19.46;65.40
70343;BME280;57767;42.068;24.752;2022-09-12T00:07:49;98491.06;;;19.42;65.71
70343;BME280;57767;42.068;24.752;2022-09-12T00:08:53;98499.38;;;19.46;66.01
70343;BME280;57767;42.068;24.752;2022-09-12T00:09:55;98495.88;;;19.45;65.55
70343;BME280;57767;42.068;24.752;2022-09-12T00:10:57;98492.69;;;19.43;65.62
70343;BME280;57767;42.068;24.752;2022-09-12T00:11:58;98491.63;;;19.39;65.47
70343;BME280;57767;42.068;24.752;2022-09-12T00:13:03;98492.69;;;19.38;65.04
70343;BME280;57767;42.068;24.752;2022-09-12T00:14:06;98493.78;;;19.37;64.35
70343;BME280;57767;42.068;24.752;2022-09-12T00:15:09;98496.16;;;19.39;64.44
70343;BME280;57767;42.068;24.752;2022-09-12T00:16:18;98490.00;;;19.38;64.45
70343;BME280;57767;42.068;24.752;2022-09-12T00:17:20;98499.69;;;19.34;64.73
70343;BME280;57767;42.068;24.752;2022-09-12T00:18:22;98487.38;;;19.28;64.85
70343;BME280;57767;42.068;24.752;2022-09-12T00:19:28;98488.97;;;19.34;64.00
70343;BME280;57767;42.068;24.752;2022-09-12T00:20:29;98495.66;;;19.37;64.52
70343;BME280;57767;42.068;24.752;2022-09-12T00:21:32;98485.22;;;19.30;64.68
70343;BME280;57767;42.068;24.752;2022-09-12T00:22:35;98496.47;;;19.37;64.82
70343;BME280;57767;42.068;24.752;2022-09-12T00:23:37;98494.59;;;19.38;63.92
70343;BME280;57767;42.068;24.752;2022-09-12T00:24:38;98496.97;;;19.39;63.60
70343;BME280;57767;42.068;24.752;2022-09-12T00:25:46;98497.53;;;19.36;62.80
70343;BME280;57767;42.068;24.752;2022-09-12T00:26:48;98488.44;;;19.27;63.01
70343;BME280;57767;42.068;24.752;2022-09-12T00:27:50;98501.81;;;19.37;63.35
70343;BME280;57767;42.068;24.752;2022-09-12T00:28:51;98498.84;;;19.39;63.25
70343;BME280;57767;42.068;24.752;2022-09-12T00:29:53;98502.09;;;19.36;63.64
70343;BME280;57767;42.068;24.752;2022-09-12T00:30:55;98505.56;;;19.36;63.61
70343;BME280;57767;42.068;24.752;2022-09-12T00:31:56;98505.56;;;19.36;63.29
70343;BME280;57767;42.068;24.752;2022-09-12T00:32:58;98502.09;;;19.36;63.53
70343;BME280;57767;42.068;24.752;2022-09-12T00:34:00;98507.97;;;19.32;63.34
70343;BME280;57767;42.068;24.752;2022-09-12T00:35:02;98507.19;;;19.32;63.61
70343;BME280;57767;42.068;24.752;2022-09-12T00:36:11;98505.31;;;19.27;63.75
70343;BME280;57767;42.068;24.752;2022-09-12T00:37:15;98500.00;;;19.22;63.78
70343;BME280;57767;42.068;24.752;2022-09-12T00:38:16;98499.69;;;19.29;63.59
70343;BME280;57767;42.068;24.752;2022-09-12T00:39:18;98504.50;;;19.27;63.70
70343;BME280;57767;42.068;24.752;2022-09-12T00:40:20;98507.97;;;19.27;63.71
70343;BME280;57767;42.068;24.752;2022-09-12T00:41:27;98501.31;;;19.25;64.15
70343;BME280;57767;42.068;24.752;2022-09-12T00:42:30;98502.91;;;19.26;64.09
70343;BME280;57767;42.068;24.752;2022-09-12T00:43:37;98506.38;;;19.26;64.19
70343;BME280;57767;42.068;24.752;2022-09-12T00:44:46;98504.00;;;19.25;64.09
70343;BME280;57767;42.068;24.752;2022-09-12T00:45:48;98502.91;;;19.26;64.17
70343;BME280;57767;42.068;24.752;2022-09-12T00:48:00;98484.47;;;19.14;64.51
70343;BME280;57767;42.068;24.752;2022-09-12T00:49:19;98476.72;;;19.13;64.64
70343;BME280;57767;42.068;24.752;2022-09-12T00:50:23;98488.22;;;19.23;65.50
70343;BME280;57767;42.068;24.752;2022-09-12T00:51:27;98485.53;;;19.23;65.57
70343;BME280;57767;42.068;24.752;2022-09-12T00:52:52;98484.72;;;19.23;65.70
70343;BME280;57767;42.068;24.752;2022-09-12T00:53:56;98486.34;;;19.19;65.74
70343;BME280;57767;42.068;24.752;2022-09-12T00:55:18;98496.50;;;19.22;66.07
70343;BME280;57767;42.068;24.752;2022-09-12T00:56:22;98491.69;;;19.19;66.14
70343;BME280;57767;42.068;24.752;2022-09-12T00:57:28;98497.06;;;19.14;67.49
70343;BME280;57767;42.068;24.752;2022-09-12T00:58:36;98476.22;;;19.01;67.76
70343;BME280;57767;42.068;24.752;2022-09-12T01:00:03;98490.09;;;19.13;68.34
70343;BME280;57767;42.068;24.752;2022-09-12T01:01:10;98490.66;;;19.10;68.96
70343;BME280;57767;42.068;24.752;2022-09-12T01:02:12;98483.72;;;18.93;68.27
70343;BME280;57767;42.068;24.752;2022-09-12T01:03:17;98485.34;;;19.00;68.99
70343;BME280;57767;42.068;24.752;2022-09-12T01:04:23;98490.69;;;19.00;70.27
70343;BME280;57767;42.068;24.752;2022-09-12T01:05:27;98482.66;;;18.89;69.96
70343;BME280;57767;42.068;24.752;2022-09-12T01:06:34;98463.44;;;18.77;70.67
70343;BME280;57767;42.068;24.752;2022-09-12T01:07:38;98481.63;;;18.85;70.09
70343;BME280;57767;42.068;24.752;2022-09-12T01:08:42;98483.72;;;18.88;70.31
70343;BME280;57767;42.068;24.752;2022-09-12T01:09:44;98472.53;;;18.86;70.09
70343;BME280;57767;42.068;24.752;2022-09-12T01:10:47;98435.09;;;18.56;70.63
70343;BME280;57767;42.068;24.752;2022-09-12T01:11:50;98482.41;;;18.86;70.33
70343;BME280;57767;42.068;24.752;2022-09-12T01:12:53;98483.50;;;18.85;70.11
70343;BME280;57767;42.068;24.752;2022-09-12T01:13:55;98484.03;;;18.87;70.13
70343;BME280;57767;42.068;24.752;2022-09-12T01:14:56;98485.59;;;18.88;70.26
70343;BME280;57767;42.068;24.752;2022-09-12T01:15:58;98490.16;;;18.87;70.46
70343;BME280;57767;42.068;24.752;2022-09-12T01:17:00;98482.13;;;18.87;69.61
70343;BME280;57767;42.068;24.752;2022-09-12T01:18:20;98491.75;;;18.88;69.40
70343;BME280;57767;42.068;24.752;2022-09-12T01:20:47;98490.72;;;18.84;69.20
70343;BME280;57767;42.068;24.752;2022-09-12T01:26:46;98481.34;;;18.82;68.63
70343;BME280;57767;42.068;24.752;2022-09-12T01:32:12;98480.03;;;18.74;68.46
70343;BME280;57767;42.068;24.752;2022-09-12T01:33:21;98477.34;;;18.69;68.20
70343;BME280;57767;42.068;24.752;2022-09-12T01:36:23;98486.97;;;18.65;68.10
70343;BME280;57767;42.068;24.752;2022-09-12T01:37:39;98472.53;;;18.56;68.11
70343;BME280;57767;42.068;24.752;2022-09-12T01:38:48;98482.97;;;18.63;67.88
70343;BME280;57767;42.068;24.752;2022-09-12T01:47:21;98469.03;;;18.55;66.98
70343;BME280;57767;42.068;24.752;2022-09-12T01:48:29;98461.84;;;18.46;67.79
70343;BME280;57767;42.068;24.752;2022-09-12T01:51:15;98461.81;;;18.51;67.30
70343;BME280;57767;42.068;24.752;2022-09-12T01:52:35;98461.56;;;18.52;67.38
70343;BME280;57767;42.068;24.752;2022-09-12T01:54:07;98471.97;;;18.54;66.93
70343;BME280;57767;42.068;24.752;2022-09-12T01:55:32;98467.69;;;18.53;67.25
70343;BME280;57767;42.068;24.752;2022-09-12T01:56:37;98469.56;;;18.52;67.35
70343;BME280;57767;42.068;24.752;2022-09-12T01:57:52;98475.19;;;18.51;66.90
70343;BME280;57767;42.068;24.752;2022-09-12T02:00:09;98474.66;;;18.54;67.44
70343;BME280;57767;42.068;24.752;2022-09-12T02:01:19;98451.16;;;18.46;67.43
70343;BME280;57767;42.068;24.752;2022-09-12T02:02:31;98472.03;;;18.59;66.88
70343;BME280;57767;42.068;24.752;2022-09-12T02:03:45;98459.16;;;18.56;67.27
70343;BME280;57767;42.068;24.752;2022-09-12T02:05:08;98470.41;;;18.58;67.25
70343;BME280;57767;42.068;24.752;2022-09-12T02:06:18;98470.13;;;18.54;66.72
70343;BME280;57767;42.068;24.752;2022-09-12T02:07:34;98470.38;;;18.53;67.02
70343;BME280;57767;42.068;24.752;2022-09-12T02:08:43;98457.56;;;18.40;67.27
70343;BME280;57767;42.068;24.752;2022-09-12T02:10:00;98468.78;;;18.47;66.69
70343;BME280;57767;42.068;24.752;2022-09-12T02:11:06;98469.84;;;18.46;67.60
70343;BME280;57767;42.068;24.752;2022-09-12T02:12:10;98475.19;;;18.46;67.21
70343;BME280;57767;42.068;24.752;2022-09-12T02:13:22;98475.47;;;18.44;67.08
70343;BME280;57767;42.068;24.752;2022-09-12T02:14:37;98470.91;;;18.40;66.97
70343;BME280;57767;42.068;24.752;2022-09-12T02:15:58;98480.00;;;18.39;67.25
70343;BME280;57767;42.068;24.752;2022-09-12T02:17:18;98469.31;;;18.39;67.08
70343;BME280;57767;42.068;24.752;2022-09-12T02:18:22;98478.41;;;18.38;66.80
70343;BME280;57767;42.068;24.752;2022-09-12T02:19:29;98474.13;;;18.37;66.88
70343;BME280;57767;42.068;24.752;2022-09-12T02:20:37;98472.53;;;18.36;66.60
70343;BME280;57767;42.068;24.752;2022-09-12T02:21:58;98477.88;;;18.36;67.05
70343;BME280;57767;42.068;24.752;2022-09-12T02:23:02;98468.00;;;18.36;66.79
70343;BME280;57767;42.068;24.752;2022-09-12T02:24:08;98458.63;;;18.23;66.64
70343;BME280;57767;42.068;24.752;2022-09-12T02:25:15;98472.25;;;18.32;66.77
70343;BME280;57767;42.068;24.752;2022-09-12T02:26:33;98475.19;;;18.31;66.19
70343;BME280;57767;42.068;24.752;2022-09-12T02:27:40;98467.72;;;18.27;66.62
70343;BME280;57767;42.068;24.752;2022-09-12T02:28:43;98457.03;;;18.22;65.98
70343;BME280;57767;42.068;24.752;2022-09-12T02:29:45;98462.09;;;18.24;66.24
70343;BME280;57767;42.068;24.752;2022-09-12T02:30:58;98473.59;;;18.30;66.12
70343;BME280;57767;42.068;24.752;2022-09-12T02:32:10;98462.88;;;18.24;66.10
70343;BME280;57767;42.068;24.752;2022-09-12T02:33:32;98470.66;;;18.31;65.93
70343;BME280;57767;42.068;24.752;2022-09-12T02:34:46;98454.34;;;18.22;65.78
70343;BME280;57767;42.068;24.752;2022-09-12T02:35:57;98467.19;;;18.31;66.39
70343;BME280;57767;42.068;24.752;2022-09-12T02:38:34;98472.00;;;18.29;66.00
70343;BME280;57767;42.068;24.752;2022-09-12T02:39:38;98469.84;;;18.25;66.13
70343;BME280;57767;42.068;24.752;2022-09-12T02:40:45;98477.34;;;18.29;65.79
70343;BME280;57767;42.068;24.752;2022-09-12T02:41:50;98470.13;;;18.29;66.08
70343;BME280;57767;42.068;24.752;2022-09-12T02:42:52;98475.72;;;18.27;66.21
70343;BME280;57767;42.068;24.752;2022-09-12T02:43:54;98472.78;;;18.24;66.17
70343;BME280;57767;42.068;24.752;2022-09-12T02:44:56;98482.13;;;18.26;66.00
70343;BME280;57767;42.068;24.752;2022-09-12T02:45:58;98468.78;;;18.26;66.12
70343;BME280;57767;42.068;24.752;2022-09-12T02:47:13;98466.09;;;18.26;66.03
70343;BME280;57767;42.068;24.752;2022-09-12T02:48:21;98458.34;;;18.25;65.63
70343;BME280;57767;42.068;24.752;2022-09-12T02:49:24;98469.03;;;18.25;65.63
70343;BME280;57767;42.068;24.752;2022-09-12T02:50:26;98461.56;;;18.22;65.77
70343;BME280;57767;42.068;24.752;2022-09-12T02:51:28;98456.50;;;18.20;65.33
70343;BME280;57767;42.068;24.752;2022-09-12T02:52:31;98463.72;;;18.20;65.13
70343;BME280;57767;42.068;24.752;2022-09-12T02:53:32;98456.75;;;18.19;65.48
70343;BME280;57767;42.068;24.752;2022-09-12T02:54:35;98463.97;;;18.18;65.30
70343;BME280;57767;42.068;24.752;2022-09-12T02:55:40;98452.22;;;18.19;65.02
70343;BME280;57767;42.068;24.752;2022-09-12T02:56:44;98453.53;;;18.17;65.15
70343;BME280;57767;42.068;24.752;2022-09-12T02:57:45;98455.41;;;18.11;64.82
70343;BME280;57767;42.068;24.752;2022-09-12T02:58:47;98458.59;;;18.13;64.82
70343;BME280;57767;42.068;24.752;2022-09-12T02:59:56;98460.75;;;18.11;65.45
70343;BME280;57767;42.068;24.752;2022-09-12T03:01:30;98461.28;;;18.08;65.78
70343;BME280;57767;42.068;24.752;2022-09-12T03:02:53;98448.47;;;18.05;66.02
70343;BME280;57767;42.068;24.752;2022-09-12T03:10:56;98448.19;;;17.97;66.21
70343;BME280;57767;42.068;24.752;2022-09-12T03:13:22;98441.50;;;17.94;66.46
70343;BME280;57767;42.068;24.752;2022-09-12T03:14:42;98446.84;;;17.94;65.77
70343;BME280;57767;42.068;24.752;2022-09-12T03:20:20;98446.03;;;17.88;64.62
70343;BME280;57767;42.068;24.752;2022-09-12T03:22:56;98447.91;;;17.88;65.15
70343;BME280;57767;42.068;24.752;2022-09-12T03:24:11;98442.81;;;17.86;65.17
70343;BME280;57767;42.068;24.752;2022-09-12T03:25:26;98445.22;;;17.88;64.87
70343;BME280;57767;42.068;24.752;2022-09-12T03:27:09;98445.78;;;17.85;65.14
70343;BME280;57767;42.068;24.752;2022-09-12T03:28:14;98443.38;;;17.83;65.26
70343;BME280;57767;42.068;24.752;2022-09-12T03:29:17;98427.31;;;17.73;65.42
70343;BME280;57767;42.068;24.752;2022-09-12T03:30:19;98441.75;;;17.82;65.61
70343;BME280;57767;42.068;24.752;2022-09-12T03:31:21;98443.63;;;17.82;65.12
70343;BME280;57767;42.068;24.752;2022-09-12T03:33:41;98438.53;;;17.80;65.03
70343;BME280;57767;42.068;24.752;2022-09-12T03:34:43;98431.59;;;17.69;64.82
70343;BME280;57767;42.068;24.752;2022-09-12T03:35:46;98448.97;;;17.82;64.84
70343;BME280;57767;42.068;24.752;2022-09-12T03:36:48;98451.09;;;17.80;64.82
70343;BME280;57767;42.068;24.752;2022-09-12T03:37:51;98448.72;;;17.83;64.71
70343;BME280;57767;42.068;24.752;2022-09-12T03:38:53;98458.31;;;17.79;64.71
70343;BME280;57767;42.068;24.752;2022-09-12T03:39:55;98448.66;;;17.73;64.68
70343;BME280;57767;42.068;24.752;2022-09-12T03:40:57;98446.81;;;17.69;64.66
70343;BME280;57767;42.068;24.752;2022-09-12T03:41:59;98455.34;;;17.76;64.49
70343;BME280;57767;42.068;24.752;2022-09-12T03:43:00;98450.56;;;17.78;64.33
70343;BME280;57767;42.068;24.752;2022-09-12T03:44:02;98456.44;;;17.80;64.30
70343;BME280;57767;42.068;24.752;2022-09-12T03:45:05;98450.00;;;17.76;64.08
70343;BME280;57767;42.068;24.752;2022-09-12T03:46:07;98438.28;;;17.72;64.02
70343;BME280;57767;42.068;24.752;2022-09-12T03:47:09;98459.66;;;17.82;63.77
70343;BME280;57767;42.068;24.752;2022-09-12T03:48:11;98457.25;;;17.80;63.46
70343;BME280;57767;42.068;24.752;2022-09-12T03:49:13;98459.09;;;17.80;63.62
70343;BME280;57767;42.068;24.752;2022-09-12T03:50:15;98455.91;;;17.78;63.28
70343;BME280;57767;42.068;24.752;2022-09-12T03:51:17;98454.56;;;17.80;62.97
70343;BME280;57767;42.068;24.752;2022-09-12T03:52:19;98444.94;;;17.74;62.89
70343;BME280;57767;42.068;24.752;2022-09-12T03:53:21;98452.97;;;17.79;62.68
70343;BME280;57767;42.068;24.752;2022-09-12T03:54:23;98457.25;;;17.85;62.56
70343;BME280;57767;42.068;24.752;2022-09-12T03:55:24;98437.72;;;17.75;62.55
70343;BME280;57767;42.068;24.752;2022-09-12T03:56:27;98460.44;;;17.82;62.51
70343;BME280;57767;42.068;24.752;2022-09-12T03:57:28;98461.00;;;17.84;62.02
70343;BME280;57767;42.068;24.752;2022-09-12T03:58:30;98459.94;;;17.85;61.49
70343;BME280;57767;42.068;24.752;2022-09-12T03:59:32;98458.59;;;17.83;61.60
70343;BME280;57767;42.068;24.752;2022-09-12T04:00:33;98447.88;;;17.73;62.04
70343;BME280;57767;42.068;24.752;2022-09-12T04:01:35;98463.38;;;17.86;61.61
70343;BME280;57767;42.068;24.752;2022-09-12T04:02:38;98458.56;;;17.88;61.15
70343;BME280;57767;42.068;24.752;2022-09-12T04:03:41;98460.19;;;17.89;61.69
70343;BME280;57767;42.068;24.752;2022-09-12T04:04:43;98461.78;;;17.90;61.68
70343;BME280;57767;42.068;24.752;2022-09-12T04:05:48;98462.59;;;17.90;61.60
70343;BME280;57767;42.068;24.752;2022-09-12T04:06:49;98448.44;;;17.90;61.33
70343;BME280;57767;42.068;24.752;2022-09-12T04:07:51;98460.72;;;17.91;61.33
70343;BME280;57767;42.068;24.752;2022-09-12T04:08:53;98460.72;;;17.91;61.25
70343;BME280;57767;42.068;24.752;2022-09-12T04:09:55;98458.31;;;17.89;61.22
70343;BME280;57767;42.068;24.752;2022-09-12T04:11:05;98459.66;;;17.92;60.95
70343;BME280;57767;42.068;24.752;2022-09-12T04:12:07;98441.47;;;17.79;61.02
70343;BME280;57767;42.068;24.752;2022-09-12T04:13:09;98462.59;;;17.90;60.61
70343;BME280;57767;42.068;24.752;2022-09-12T04:14:11;98458.59;;;17.93;60.86
70343;BME280;57767;42.068;24.752;2022-09-12T04:15:13;98459.41;;;17.94;60.24
70343;BME280;57767;42.068;24.752;2022-09-12T04:16:15;98467.69;;;17.97;60.38
70343;BME280;57767;42.068;24.752;2022-09-12T04:17:17;98459.66;;;18.02;59.84
70343;BME280;57767;42.068;24.752;2022-09-12T04:18:18;98463.97;;;18.08;59.58
70343;BME280;57767;42.068;24.752;2022-09-12T04:19:20;98462.91;;;18.09;59.41
70343;BME280;57767;42.068;24.752;2022-09-12T04:20:22;98447.41;;;18.06;59.21
70343;BME280;57767;42.068;24.752;2022-09-12T04:21:24;98460.75;;;18.16;58.84
70343;BME280;57767;42.068;24.752;2022-09-12T04:22:25;98466.63;;;18.18;58.92
70343;BME280;57767;42.068;24.752;2022-09-12T04:23:27;98465.03;;;18.27;58.37
70343;BME280;57767;42.068;24.752;2022-09-12T04:24:29;98464.53;;;18.36;58.35
70343;BME280;57767;42.068;24.752;2022-09-12T04:25:31;98475.72;;;18.43;58.22
70343;BME280;57767;42.068;24.752;2022-09-12T04:26:32;98471.72;;;18.55;57.51
70343;BME280;57767;42.068;24.752;2022-09-12T04:27:34;98467.19;;;18.66;57.33
70343;BME280;57767;42.068;24.752;2022-09-12T04:28:37;98467.72;;;18.68;57.41
70343;BME280;57767;42.068;24.752;2022-09-12T04:29:38;98479.22;;;18.84;56.46
70343;BME280;57767;42.068;24.752;2022-09-12T04:30:40;98481.31;;;18.92;55.98
70343;BME280;57767;42.068;24.752;2022-09-12T04:31:42;98477.00;;;19.01;55.69
70343;BME280;57767;42.068;24.752;2022-09-12T04:32:44;98483.16;;;19.12;55.58
70343;BME280;57767;42.068;24.752;2022-09-12T04:33:46;98470.28;;;19.19;55.39
70343;BME280;57767;42.068;24.752;2022-09-12T04:34:47;98483.09;;;19.37;55.38
70343;BME280;57767;42.068;24.752;2022-09-12T04:35:49;98484.13;;;19.41;54.73
70343;BME280;57767;42.068;24.752;2022-09-12T04:36:51;98491.31;;;19.51;55.23
70343;BME280;57767;42.068;24.752;2022-09-12T04:37:53;98493.72;;;19.62;54.73
70343;BME280;57767;42.068;24.752;2022-09-12T04:38:55;98479.53;;;19.62;54.43
70343;BME280;57767;42.068;24.752;2022-09-12T04:39:57;98497.06;;;19.83;54.58
70343;BME280;57767;42.068;24.752;2022-09-12T04:40:59;98494.09;;;19.90;53.87
70343;BME280;57767;42.068;24.752;2022-09-12T04:42:01;98488.69;;;20.00;54.05
70343;BME280;57767;42.068;24.752;2022-09-12T04:43:05;98489.63;;;20.14;53.62
70343;BME280;57767;42.068;24.752;2022-09-12T04:44:13;98486.41;;;20.17;53.44
70343;BME280;57767;42.068;24.752;2022-09-12T04:45:14;98494.34;;;20.32;53.59
70343;BME280;57767;42.068;24.752;2022-09-12T04:46:17;98499.34;;;20.49;53.35
70343;BME280;57767;42.068;24.752;2022-09-12T04:47:22;98498.69;;;20.62;52.02
70343;BME280;57767;42.068;24.752;2022-09-12T04:48:24;98485.47;;;20.71;51.27
70343;BME280;57767;42.068;24.752;2022-09-12T04:49:25;98494.19;;;20.87;51.71
70343;BME280;57767;42.068;24.752;2022-09-12T04:50:27;98492.50;;;20.91;50.50
70343;BME280;57767;42.068;24.752;2022-09-12T04:51:33;98509.56;;;21.05;50.08
70343;BME280;57767;42.068;24.752;2022-09-12T04:52:36;98506.47;;;21.22;50.00
70343;BME280;57767;42.068;24.752;2022-09-12T04:53:38;98507.16;;;21.32;49.35
70343;BME280;57767;42.068;24.752;2022-09-12T04:54:40;98516.06;;;21.52;48.72
70343;BME280;57767;42.068;24.752;2022-09-12T04:55:42;98503.59;;;21.61;48.78
70343;BME280;57767;42.068;24.752;2022-09-12T04:56:45;98501.41;;;21.63;47.99
70343;BME280;57767;42.068;24.752;2022-09-12T04:57:47;98511.75;;;21.74;47.42
70343;BME280;57767;42.068;24.752;2022-09-12T04:58:49;98500.47;;;21.72;46.68
70343;BME280;57767;42.068;24.752;2022-09-12T04:59:51;98518.72;;;21.94;47.81
70343;BME280;57767;42.068;24.752;2022-09-12T05:00:52;98515.84;;;22.09;46.49
70343;BME280;57767;42.068;24.752;2022-09-12T05:01:54;98515.50;;;22.16;45.96
70343;BME280;57767;42.068;24.752;2022-09-12T05:02:56;98514.91;;;22.19;46.65
70343;BME280;57767;42.068;24.752;2022-09-12T05:03:58;98515.78;;;22.33;45.81
70343;BME280;57767;42.068;24.752;2022-09-12T05:05:00;98518.97;;;22.35;45.45
70343;BME280;57767;42.068;24.752;2022-09-12T05:06:02;98519.91;;;22.44;45.21
70343;BME280;57767;42.068;24.752;2022-09-12T05:07:04;98519.66;;;22.60;45.53
70343;BME280;57767;42.068;24.752;2022-09-12T05:08:06;98516.78;;;22.70;44.67
70343;BME280;57767;42.068;24.752;2022-09-12T05:09:12;98524.56;;;22.90;44.56
70343;BME280;57767;42.068;24.752;2022-09-12T05:10:14;98533.88;;;23.11;44.12
70343;BME280;57767;42.068;24.752;2022-09-12T05:11:21;98528.69;;;23.15;43.18
70343;BME280;57767;42.068;24.752;2022-09-12T05:12:29;98525.09;;;23.33;44.85
70343;BME280;57767;42.068;24.752;2022-09-12T05:13:32;98533.69;;;23.49;43.32
70343;BME280;57767;42.068;24.752;2022-09-12T05:14:34;98530.81;;;23.59;43.53
70343;BME280;57767;42.068;24.752;2022-09-12T05:15:36;98541.09;;;23.71;42.48
70343;BME280;57767;42.068;24.752;2022-09-12T05:16:38;98540.13;;;23.80;42.81
70343;BME280;57767;42.068;24.752;2022-09-12T05:17:41;98535.38;;;24.00;42.10
70343;BME280;57767;42.068;24.752;2022-09-12T05:18:44;98538.34;;;24.12;41.29
70343;BME280;57767;42.068;24.752;2022-09-12T05:19:47;98530.84;;;24.09;40.99
70343;BME280;57767;42.068;24.752;2022-09-12T05:20:49;98533.94;;;24.16;41.60
70343;BME280;57767;42.068;24.752;2022-09-12T05:21:50;98541.91;;;24.21;41.57
70343;BME280;57767;42.068;24.752;2022-09-12T05:22:52;98538.69;;;24.33;40.55
70343;BME280;57767;42.068;24.752;2022-09-12T05:23:56;98531.91;;;24.35;40.25
70343;BME280;57767;42.068;24.752;2022-09-12T05:24:59;98526.13;;;24.28;41.01
70343;BME280;57767;42.068;24.752;2022-09-12T05:26:03;98535.94;;;24.46;41.68
70343;BME280;57767;42.068;24.752;2022-09-12T05:27:05;98530.38;;;24.65;41.22
70343;BME280;57767;42.068;24.752;2022-09-12T05:28:07;98536.84;;;24.86;39.92
70343;BME280;57767;42.068;24.752;2022-09-12T05:29:09;98534.66;;;24.88;38.93
70343;BME280;57767;42.068;24.752;2022-09-12T05:30:11;98535.72;;;25.01;39.70
70343;BME280;57767;42.068;24.752;2022-09-12T05:31:18;98530.53;;;25.13;39.21
70343;BME280;57767;42.068;24.752;2022-09-12T05:32:20;98535.25;;;25.39;40.10
70343;BME280;57767;42.068;24.752;2022-09-12T05:33:21;98524.63;;;25.51;39.61
70343;BME280;57767;42.068;24.752;2022-09-12T05:34:25;98538.88;;;25.74;39.61
70343;BME280;57767;42.068;24.752;2022-09-12T05:35:28;98539.41;;;25.93;37.21
70343;BME280;57767;42.068;24.752;2022-09-12T05:36:30;98529.97;;;25.73;38.66
70343;BME280;57767;42.068;24.752;2022-09-12T05:37:31;98527.13;;;25.69;38.19
70343;BME280;57767;42.068;24.752;2022-09-12T05:38:34;98536.66;;;25.84;37.07
70343;BME280;57767;42.068;24.752;2022-09-12T05:39:35;98541.06;;;25.63;36.66
70343;BME280;57767;42.068;24.752;2022-09-12T05:40:37;98535.03;;;25.66;37.38
70343;BME280;57767;42.068;24.752;2022-09-12T05:41:39;98524.53;;;25.64;37.84
70343;BME280;57767;42.068;24.752;2022-09-12T05:42:41;98522.47;;;25.61;37.47
70343;BME280;57767;42.068;24.752;2022-09-12T05:43:43;98527.78;;;25.84;38.34
70343;BME280;57767;42.068;24.752;2022-09-12T05:44:45;98538.16;;;26.08;37.37
70343;BME280;57767;42.068;24.752;2022-09-12T05:45:47;98531.94;;;26.24;37.73
70343;BME280;57767;42.068;24.752;2022-09-12T05:46:49;98533.25;;;26.35;36.90
70343;BME280;57767;42.068;24.752;2022-09-12T05:47:52;98535.47;;;26.51;36.66
70343;BME280;57767;42.068;24.752;2022-09-12T05:49:04;98539.38;;;26.88;36.68
70343;BME280;57767;42.068;24.752;2022-09-12T05:50:07;98536.38;;;26.98;36.51
70343;BME280;57767;42.068;24.752;2022-09-12T05:51:16;98535.44;;;26.94;35.09
70343;BME280;57767;42.068;24.752;2022-09-12T05:52:21;98534.63;;;26.93;35.93
70343;BME280;57767;42.068;24.752;2022-09-12T05:53:23;98532.72;;;26.94;35.63
70343;BME280;57767;42.068;24.752;2022-09-12T05:54:28;98529.97;;;27.02;35.68
70343;BME280;57767;42.068;24.752;2022-09-12T05:55:32;98526.66;;;26.88;34.22
70343;BME280;57767;42.068;24.752;2022-09-12T05:56:37;98526.22;;;26.69;35.14
70343;BME280;57767;42.068;24.752;2022-09-12T05:57:43;98538.31;;;26.63;35.03
70343;BME280;57767;42.068;24.752;2022-09-12T05:58:52;98520.66;;;26.48;35.18
70343;BME280;57767;42.068;24.752;2022-09-12T05:59:54;98524.63;;;26.51;35.84
70343;BME280;57767;42.068;24.752;2022-09-12T06:01:03;98521.47;;;26.57;35.66
70343;BME280;57767;42.068;24.752;2022-09-12T06:02:08;98521.28;;;26.54;35.75
70343;BME280;57767;42.068;24.752;2022-09-12T06:03:10;98529.13;;;26.47;34.76
70343;BME280;57767;42.068;24.752;2022-09-12T06:04:12;98518.91;;;26.35;36.19
70343;BME280;57767;42.068;24.752;2022-09-12T06:05:14;98520.69;;;26.31;36.00
70343;BME280;57767;42.068;24.752;2022-09-12T06:06:18;98524.47;;;26.47;36.43
70343;BME280;57767;42.068;24.752;2022-09-12T06:07:21;98528.28;;;26.72;36.66
70343;BME280;57767;42.068;24.752;2022-09-12T06:08:23;98524.78;;;26.71;34.81
70343;BME280;57767;42.068;24.752;2022-09-12T06:09:24;98517.63;;;26.67;35.21
70343;BME280;57767;42.068;24.752;2022-09-12T06:10:26;98517.94;;;26.65;35.00
70343;BME280;57767;42.068;24.752;2022-09-12T06:11:31;98519.03;;;26.82;35.30
70343;BME280;57767;42.068;24.752;2022-09-12T06:12:37;98523.47;;;26.77;35.16
70343;BME280;57767;42.068;24.752;2022-09-12T06:13:41;98522.50;;;26.91;35.04
70343;BME280;57767;42.068;24.752;2022-09-12T06:14:43;98516.47;;;26.94;34.95
70343;BME280;57767;42.068;24.752;2022-09-12T06:15:44;98497.31;;;26.99;35.21
70343;BME280;57767;42.068;24.752;2022-09-12T06:16:46;98522.38;;;26.96;34.82
70343;BME280;57767;42.068;24.752;2022-09-12T06:17:49;98516.47;;;26.94;34.58
70343;BME280;57767;42.068;24.752;2022-09-12T06:18:54;98520.25;;;27.10;34.55
70343;BME280;57767;42.068;24.752;2022-09-12T06:19:56;98522.97;;;27.10;35.26
70343;BME280;57767;42.068;24.752;2022-09-12T06:21:04;98504.09;;;27.22;35.19